Clyde, North Carolina
Current Conditions -  °F | °C
As of 6:54 PM on Friday 21 Nov 2014 (Local Time) from KAVL Reporting Station
Clear Clear  
Wind Chill: 41°   Ceiling: Unl
Heat Index: 41°   Visibility: 10mi
Dew Point: 10°   Wind: 0mph
Humidity: 28%   Direction: NA
Pressure: 30.42"   Gusts: NA
Location:  35.53°N, 82.91°W
Report Text: KAVL 212354Z 00000KT 10SM CLR 05/M12 A3042 RMK AO2 SLP309 T00501122 10111 20050 51015
Loading
Personal Weather Stations






























Interactive Weather Map New forecast layout! Learn more

10-Day Weather Forecast

Advertisements
Track Severe Weather on mobile